sensor_id;sensor_type;location;lat;lon;timestamp;P1;durP1;ratioP1;P2;durP2;ratioP2
62258;SDS011;48241;48.824;10.102;2023-10-13T00:00:29;7.85;;;3.25;;
62258;SDS011;48241;48.824;10.102;2023-10-13T00:02:58;6.28;;;3.20;;
62258;SDS011;48241;48.824;10.102;2023-10-13T00:05:27;5.15;;;2.83;;
62258;SDS011;48241;48.824;10.102;2023-10-13T00:07:56;5.18;;;3.03;;
62258;SDS011;48241;48.824;10.102;2023-10-13T00:10:28;4.78;;;3.10;;
62258;SDS011;48241;48.824;10.102;2023-10-13T00:12:54;5.38;;;3.00;;
62258;SDS011;48241;48.824;10.102;2023-10-13T00:15:30;6.18;;;3.00;;
62258;SDS011;48241;48.824;10.102;2023-10-13T00:18:03;6.10;;;3.25;;
62258;SDS011;48241;48.824;10.102;2023-10-13T00:20:39;4.65;;;2.40;;
62258;SDS011;48241;48.824;10.102;2023-10-13T00:23:06;6.18;;;2.78;;
62258;SDS011;48241;48.824;10.102;2023-10-13T00:25:32;4.55;;;2.97;;
62258;SDS011;48241;48.824;10.102;2023-10-13T00:28:08;6.10;;;3.13;;
62258;SDS011;48241;48.824;10.102;2023-10-13T00:30:34;7.05;;;3.33;;
62258;SDS011;48241;48.824;10.102;2023-10-13T00:33:00;6.82;;;3.22;;
62258;SDS011;48241;48.824;10.102;2023-10-13T00:35:29;5.53;;;3.22;;
62258;SDS011;48241;48.824;10.102;2023-10-13T00:38:04;7.90;;;2.88;;
62258;SDS011;48241;48.824;10.102;2023-10-13T00:40:41;7.28;;;2.92;;
62258;SDS011;48241;48.824;10.102;2023-10-13T00:43:09;5.57;;;2.83;;
62258;SDS011;48241;48.824;10.102;2023-10-13T00:45:44;7.90;;;3.40;;
62258;SDS011;48241;48.824;10.102;2023-10-13T00:48:30;5.00;;;3.05;;
62258;SDS011;48241;48.824;10.102;2023-10-13T00:51:05;8.40;;;3.47;;
62258;SDS011;48241;48.824;10.102;2023-10-13T00:53:31;7.35;;;3.15;;
62258;SDS011;48241;48.824;10.102;2023-10-13T00:55:59;6.70;;;3.10;;
62258;SDS011;48241;48.824;10.102;2023-10-13T00:58:32;8.25;;;3.70;;
62258;SDS011;48241;48.824;10.102;2023-10-13T01:01:04;7.05;;;3.05;;
62258;SDS011;48241;48.824;10.102;2023-10-13T01:03:53;7.38;;;3.63;;
62258;SDS011;48241;48.824;10.102;2023-10-13T01:06:27;7.90;;;3.20;;
62258;SDS011;48241;48.824;10.102;2023-10-13T01:09:01;6.00;;;3.30;;
62258;SDS011;48241;48.824;10.102;2023-10-13T01:11:39;7.05;;;3.30;;
62258;SDS011;48241;48.824;10.102;2023-10-13T01:14:10;8.27;;;3.40;;
62258;SDS011;48241;48.824;10.102;2023-10-13T01:16:36;6.00;;;3.20;;
62258;SDS011;48241;48.824;10.102;2023-10-13T01:19:08;5.97;;;3.60;;
62258;SDS011;48241;48.824;10.102;2023-10-13T01:21:43;9.60;;;3.90;;
62258;SDS011;48241;48.824;10.102;2023-10-13T01:24:12;5.82;;;3.60;;
62258;SDS011;48241;48.824;10.102;2023-10-13T01:26:39;5.95;;;3.30;;
62258;SDS011;48241;48.824;10.102;2023-10-13T01:29:06;8.50;;;3.38;;
62258;SDS011;48241;48.824;10.102;2023-10-13T01:31:37;4.60;;;2.95;;
62258;SDS011;48241;48.824;10.102;2023-10-13T01:34:20;6.88;;;3.60;;
62258;SDS011;48241;48.824;10.102;2023-10-13T01:36:49;7.60;;;3.63;;
62258;SDS011;48241;48.824;10.102;2023-10-13T01:39:16;7.95;;;3.38;;
62258;SDS011;48241;48.824;10.102;2023-10-13T01:41:46;7.28;;;3.28;;
62258;SDS011;48241;48.824;10.102;2023-10-13T01:44:18;7.07;;;3.22;;
62258;SDS011;48241;48.824;10.102;2023-10-13T01:46:45;7.88;;;3.30;;
62258;SDS011;48241;48.824;10.102;2023-10-13T01:49:12;12.70;;;4.05;;
62258;SDS011;48241;48.824;10.102;2023-10-13T01:51:40;6.38;;;3.78;;
62258;SDS011;48241;48.824;10.102;2023-10-13T01:54:06;7.10;;;4.10;;
62258;SDS011;48241;48.824;10.102;2023-10-13T01:56:36;7.45;;;3.63;;
62258;SDS011;48241;48.824;10.102;2023-10-13T01:59:07;7.05;;;3.53;;
62258;SDS011;48241;48.824;10.102;2023-10-13T02:01:34;8.60;;;3.55;;
62258;SDS011;48241;48.824;10.102;2023-10-13T02:04:00;7.95;;;3.20;;
62258;SDS011;48241;48.824;10.102;2023-10-13T02:06:30;11.15;;;3.55;;
62258;SDS011;48241;48.824;10.102;2023-10-13T02:09:04;7.35;;;3.20;;
62258;SDS011;48241;48.824;10.102;2023-10-13T02:11:50;6.60;;;3.45;;
62258;SDS011;48241;48.824;10.102;2023-10-13T02:14:19;7.93;;;3.63;;
62258;SDS011;48241;48.824;10.102;2023-10-13T02:16:47;7.57;;;3.05;;
62258;SDS011;48241;48.824;10.102;2023-10-13T02:19:15;7.72;;;3.70;;
62258;SDS011;48241;48.824;10.102;2023-10-13T02:21:44;11.70;;;4.15;;
62258;SDS011;48241;48.824;10.102;2023-10-13T02:24:10;5.05;;;3.30;;
62258;SDS011;48241;48.824;10.102;2023-10-13T02:26:44;8.13;;;3.53;;
62258;SDS011;48241;48.824;10.102;2023-10-13T02:29:10;8.75;;;3.65;;
62258;SDS011;48241;48.824;10.102;2023-10-13T02:31:39;9.68;;;3.85;;
62258;SDS011;48241;48.824;10.102;2023-10-13T02:34:05;5.78;;;3.60;;
62258;SDS011;48241;48.824;10.102;2023-10-13T02:36:37;6.40;;;3.60;;
62258;SDS011;48241;48.824;10.102;2023-10-13T02:39:14;6.68;;;3.50;;
62258;SDS011;48241;48.824;10.102;2023-10-13T02:41:50;8.00;;;3.65;;
62258;SDS011;48241;48.824;10.102;2023-10-13T02:44:15;5.90;;;3.30;;
62258;SDS011;48241;48.824;10.102;2023-10-13T02:46:56;9.93;;;3.58;;
62258;SDS011;48241;48.824;10.102;2023-10-13T02:49:22;6.28;;;3.65;;
62258;SDS011;48241;48.824;10.102;2023-10-13T02:51:52;7.85;;;3.47;;
62258;SDS011;48241;48.824;10.102;2023-10-13T02:54:20;7.18;;;3.60;;
62258;SDS011;48241;48.824;10.102;2023-10-13T02:56:46;6.45;;;3.40;;
62258;SDS011;48241;48.824;10.102;2023-10-13T02:59:30;7.25;;;3.63;;
62258;SDS011;48241;48.824;10.102;2023-10-13T03:02:02;9.50;;;3.53;;
62258;SDS011;48241;48.824;10.102;2023-10-13T03:04:44;7.72;;;3.40;;
62258;SDS011;48241;48.824;10.102;2023-10-13T03:07:11;4.57;;;3.20;;
62258;SDS011;48241;48.824;10.102;2023-10-13T03:09:40;7.72;;;3.42;;
62258;SDS011;48241;48.824;10.102;2023-10-13T03:12:14;9.00;;;3.90;;
62258;SDS011;48241;48.824;10.102;2023-10-13T03:14:40;6.45;;;3.58;;
62258;SDS011;48241;48.824;10.102;2023-10-13T03:17:06;8.35;;;3.53;;
62258;SDS011;48241;48.824;10.102;2023-10-13T03:19:41;7.83;;;3.90;;
62258;SDS011;48241;48.824;10.102;2023-10-13T03:22:11;7.80;;;3.42;;
62258;SDS011;48241;48.824;10.102;2023-10-13T03:24:37;11.60;;;3.65;;
62258;SDS011;48241;48.824;10.102;2023-10-13T03:27:10;7.63;;;3.38;;
62258;SDS011;48241;48.824;10.102;2023-10-13T03:29:40;7.25;;;3.53;;
62258;SDS011;48241;48.824;10.102;2023-10-13T03:32:09;9.50;;;3.35;;
62258;SDS011;48241;48.824;10.102;2023-10-13T03:34:38;7.55;;;3.72;;
62258;SDS011;48241;48.824;10.102;2023-10-13T03:37:23;7.15;;;3.55;;
62258;SDS011;48241;48.824;10.102;2023-10-13T03:40:04;7.28;;;3.35;;
62258;SDS011;48241;48.824;10.102;2023-10-13T03:42:46;6.68;;;3.67;;
62258;SDS011;48241;48.824;10.102;2023-10-13T03:45:29;5.43;;;3.42;;
62258;SDS011;48241;48.824;10.102;2023-10-13T03:48:11;5.75;;;3.72;;
62258;SDS011;48241;48.824;10.102;2023-10-13T03:50:50;8.20;;;3.55;;
62258;SDS011;48241;48.824;10.102;2023-10-13T03:53:28;8.15;;;3.60;;
62258;SDS011;48241;48.824;10.102;2023-10-13T03:56:01;7.32;;;3.40;;
62258;SDS011;48241;48.824;10.102;2023-10-13T03:58:36;7.50;;;3.55;;
62258;SDS011;48241;48.824;10.102;2023-10-13T04:01:07;7.25;;;3.70;;
62258;SDS011;48241;48.824;10.102;2023-10-13T04:03:39;7.35;;;3.33;;
62258;SDS011;48241;48.824;10.102;2023-10-13T04:06:22;8.90;;;3.47;;
62258;SDS011;48241;48.824;10.102;2023-10-13T04:09:10;11.00;;;3.70;;
62258;SDS011;48241;48.824;10.102;2023-10-13T04:11:54;8.25;;;3.75;;
62258;SDS011;48241;48.824;10.102;2023-10-13T04:14:35;9.85;;;3.30;;
62258;SDS011;48241;48.824;10.102;2023-10-13T04:17:22;9.77;;;3.55;;
62258;SDS011;48241;48.824;10.102;2023-10-13T04:19:52;7.35;;;3.80;;
62258;SDS011;48241;48.824;10.102;2023-10-13T04:25:25;7.78;;;3.47;;
62258;SDS011;48241;48.824;10.102;2023-10-13T04:28:08;8.30;;;3.47;;
62258;SDS011;48241;48.824;10.102;2023-10-13T04:30:59;10.68;;;3.85;;
62258;SDS011;48241;48.824;10.102;2023-10-13T04:33:24;6.57;;;3.58;;
62258;SDS011;48241;48.824;10.102;2023-10-13T04:38:53;6.47;;;2.60;;
62258;SDS011;48241;48.824;10.102;2023-10-13T04:41:37;8.00;;;3.55;;
62258;SDS011;48241;48.824;10.102;2023-10-13T04:44:23;5.30;;;3.25;;
62258;SDS011;48241;48.824;10.102;2023-10-13T04:46:55;4.35;;;2.53;;
62258;SDS011;48241;48.824;10.102;2023-10-13T04:49:25;7.13;;;3.17;;
62258;SDS011;48241;48.824;10.102;2023-10-13T04:51:58;9.85;;;3.45;;
62258;SDS011;48241;48.824;10.102;2023-10-13T04:54:26;6.43;;;3.17;;
62258;SDS011;48241;48.824;10.102;2023-10-13T04:59:46;7.20;;;2.78;;
62258;SDS011;48241;48.824;10.102;2023-10-13T05:02:31;9.07;;;3.38;;
62258;SDS011;48241;48.824;10.102;2023-10-13T05:05:09;6.40;;;3.28;;
62258;SDS011;48241;48.824;10.102;2023-10-13T05:07:42;8.23;;;3.53;;
62258;SDS011;48241;48.824;10.102;2023-10-13T05:10:27;5.43;;;3.40;;
62258;SDS011;48241;48.824;10.102;2023-10-13T05:13:12;7.82;;;3.85;;
62258;SDS011;48241;48.824;10.102;2023-10-13T05:15:56;7.65;;;3.85;;
62258;SDS011;48241;48.824;10.102;2023-10-13T05:18:40;7.78;;;3.60;;
62258;SDS011;48241;48.824;10.102;2023-10-13T05:21:24;7.60;;;4.25;;
62258;SDS011;48241;48.824;10.102;2023-10-13T05:24:08;6.88;;;3.40;;
62258;SDS011;48241;48.824;10.102;2023-10-13T05:26:52;13.57;;;3.92;;
62258;SDS011;48241;48.824;10.102;2023-10-13T05:29:44;6.07;;;3.60;;
62258;SDS011;48241;48.824;10.102;2023-10-13T05:32:29;8.57;;;3.72;;
62258;SDS011;48241;48.824;10.102;2023-10-13T05:35:13;8.18;;;3.45;;
62258;SDS011;48241;48.824;10.102;2023-10-13T05:37:58;6.93;;;3.60;;
62258;SDS011;48241;48.824;10.102;2023-10-13T05:40:58;7.55;;;3.35;;
62258;SDS011;48241;48.824;10.102;2023-10-13T05:43:44;7.65;;;3.35;;
62258;SDS011;48241;48.824;10.102;2023-10-13T05:46:29;6.95;;;3.40;;
62258;SDS011;48241;48.824;10.102;2023-10-13T05:49:04;5.55;;;3.45;;
62258;SDS011;48241;48.824;10.102;2023-10-13T05:51:37;9.80;;;3.58;;
62258;SDS011;48241;48.824;10.102;2023-10-13T05:54:11;10.00;;;3.78;;
62258;SDS011;48241;48.824;10.102;2023-10-13T05:59:28;7.90;;;3.40;;
62258;SDS011;48241;48.824;10.102;2023-10-13T06:02:17;8.48;;;2.90;;
62258;SDS011;48241;48.824;10.102;2023-10-13T06:07:35;9.10;;;3.92;;
62258;SDS011;48241;48.824;10.102;2023-10-13T06:10:19;6.63;;;3.72;;
62258;SDS011;48241;48.824;10.102;2023-10-13T06:13:03;5.95;;;3.42;;
62258;SDS011;48241;48.824;10.102;2023-10-13T06:15:47;10.30;;;3.85;;
62258;SDS011;48241;48.824;10.102;2023-10-13T06:18:31;9.05;;;3.35;;
62258;SDS011;48241;48.824;10.102;2023-10-13T06:21:15;6.18;;;3.58;;
62258;SDS011;48241;48.824;10.102;2023-10-13T06:23:59;6.25;;;3.25;;
62258;SDS011;48241;48.824;10.102;2023-10-13T06:26:43;7.82;;;3.42;;
62258;SDS011;48241;48.824;10.102;2023-10-13T06:29:30;6.97;;;3.40;;
62258;SDS011;48241;48.824;10.102;2023-10-13T06:31:56;9.73;;;3.38;;
62258;SDS011;48241;48.824;10.102;2023-10-13T06:34:23;7.13;;;3.63;;
62258;SDS011;48241;48.824;10.102;2023-10-13T06:37:03;6.82;;;3.75;;
62258;SDS011;48241;48.824;10.102;2023-10-13T06:39:47;7.22;;;3.58;;
62258;SDS011;48241;48.824;10.102;2023-10-13T06:42:12;7.47;;;3.20;;
62258;SDS011;48241;48.824;10.102;2023-10-13T06:44:38;7.03;;;3.75;;
62258;SDS011;48241;48.824;10.102;2023-10-13T06:47:05;8.70;;;3.90;;
62258;SDS011;48241;48.824;10.102;2023-10-13T06:49:30;6.10;;;3.63;;
62258;SDS011;48241;48.824;10.102;2023-10-13T06:54:31;6.60;;;3.50;;
62258;SDS011;48241;48.824;10.102;2023-10-13T06:57:00;7.60;;;3.90;;
62258;SDS011;48241;48.824;10.102;2023-10-13T06:59:29;7.82;;;3.97;;
62258;SDS011;48241;48.824;10.102;2023-10-13T07:01:58;6.93;;;3.47;;
62258;SDS011;48241;48.824;10.102;2023-10-13T07:04:28;6.63;;;3.95;;
62258;SDS011;48241;48.824;10.102;2023-10-13T07:06:53;9.68;;;3.83;;
62258;SDS011;48241;48.824;10.102;2023-10-13T07:09:19;8.48;;;3.75;;
62258;SDS011;48241;48.824;10.102;2023-10-13T07:12:00;6.13;;;3.60;;
62258;SDS011;48241;48.824;10.102;2023-10-13T07:14:41;9.35;;;3.65;;
62258;SDS011;48241;48.824;10.102;2023-10-13T07:17:16;5.03;;;2.97;;
62258;SDS011;48241;48.824;10.102;2023-10-13T07:19:48;9.05;;;3.50;;
62258;SDS011;48241;48.824;10.102;2023-10-13T07:22:24;5.03;;;3.60;;
62258;SDS011;48241;48.824;10.102;2023-10-13T07:24:52;6.55;;;3.45;;
62258;SDS011;48241;48.824;10.102;2023-10-13T07:27:18;7.22;;;3.17;;
62258;SDS011;48241;48.824;10.102;2023-10-13T07:29:51;11.75;;;3.90;;
62258;SDS011;48241;48.824;10.102;2023-10-13T07:32:41;8.10;;;3.38;;
62258;SDS011;48241;48.824;10.102;2023-10-13T07:35:11;9.60;;;3.50;;
62258;SDS011;48241;48.824;10.102;2023-10-13T07:37:37;5.53;;;3.38;;
62258;SDS011;48241;48.824;10.102;2023-10-13T07:40:06;7.18;;;3.67;;
62258;SDS011;48241;48.824;10.102;2023-10-13T07:42:47;6.72;;;3.75;;
62258;SDS011;48241;48.824;10.102;2023-10-13T07:45:13;8.88;;;3.53;;
62258;SDS011;48241;48.824;10.102;2023-10-13T07:47:38;8.75;;;3.70;;
62258;SDS011;48241;48.824;10.102;2023-10-13T07:50:04;5.78;;;3.83;;
62258;SDS011;48241;48.824;10.102;2023-10-13T07:52:31;7.32;;;3.42;;
62258;SDS011;48241;48.824;10.102;2023-10-13T07:55:19;6.70;;;3.60;;
62258;SDS011;48241;48.824;10.102;2023-10-13T07:57:46;6.78;;;3.40;;
62258;SDS011;48241;48.824;10.102;2023-10-13T08:00:24;5.85;;;3.40;;
62258;SDS011;48241;48.824;10.102;2023-10-13T08:03:08;6.55;;;3.10;;
62258;SDS011;48241;48.824;10.102;2023-10-13T08:05:54;5.03;;;3.30;;
62258;SDS011;48241;48.824;10.102;2023-10-13T08:08:26;7.93;;;3.33;;
62258;SDS011;48241;48.824;10.102;2023-10-13T08:11:00;8.30;;;3.63;;
62258;SDS011;48241;48.824;10.102;2023-10-13T08:13:33;7.28;;;3.60;;
62258;SDS011;48241;48.824;10.102;2023-10-13T08:16:02;6.97;;;3.40;;
62258;SDS011;48241;48.824;10.102;2023-10-13T08:18:34;6.30;;;3.42;;
62258;SDS011;48241;48.824;10.102;2023-10-13T08:21:01;8.25;;;3.35;;
62258;SDS011;48241;48.824;10.102;2023-10-13T08:23:28;9.68;;;3.22;;
62258;SDS011;48241;48.824;10.102;2023-10-13T08:26:14;6.07;;;2.63;;
62258;SDS011;48241;48.824;10.102;2023-10-13T08:29:01;7.53;;;3.15;;
62258;SDS011;48241;48.824;10.102;2023-10-13T08:31:49;5.88;;;3.08;;
62258;SDS011;48241;48.824;10.102;2023-10-13T08:34:34;5.90;;;2.80;;
62258;SDS011;48241;48.824;10.102;2023-10-13T08:37:09;6.30;;;3.05;;
62258;SDS011;48241;48.824;10.102;2023-10-13T08:39:44;9.30;;;3.20;;
62258;SDS011;48241;48.824;10.102;2023-10-13T08:42:30;9.27;;;3.55;;
62258;SDS011;48241;48.824;10.102;2023-10-13T08:45:25;9.50;;;3.30;;
62258;SDS011;48241;48.824;10.102;2023-10-13T08:47:53;6.03;;;3.20;;
62258;SDS011;48241;48.824;10.102;2023-10-13T08:56:08;10.95;;;3.55;;
62258;SDS011;48241;48.824;10.102;2023-10-13T09:01:19;6.90;;;3.13;;
62258;SDS011;48241;48.824;10.102;2023-10-13T09:04:16;5.93;;;2.90;;
62258;SDS011;48241;48.824;10.102;2023-10-13T09:06:43;8.82;;;3.22;;
62258;SDS011;48241;48.824;10.102;2023-10-13T09:09:12;6.85;;;2.80;;
62258;SDS011;48241;48.824;10.102;2023-10-13T09:11:52;6.10;;;3.00;;
62258;SDS011;48241;48.824;10.102;2023-10-13T09:14:32;8.10;;;3.65;;
62258;SDS011;48241;48.824;10.102;2023-10-13T09:17:05;7.38;;;3.45;;
62258;SDS011;48241;48.824;10.102;2023-10-13T09:19:51;6.22;;;3.03;;
62258;SDS011;48241;48.824;10.102;2023-10-13T09:22:23;5.90;;;2.83;;
62258;SDS011;48241;48.824;10.102;2023-10-13T09:25:00;9.60;;;3.42;;
62258;SDS011;48241;48.824;10.102;2023-10-13T09:27:38;8.30;;;3.05;;
62258;SDS011;48241;48.824;10.102;2023-10-13T09:30:04;7.72;;;3.05;;
62258;SDS011;48241;48.824;10.102;2023-10-13T09:32:33;7.07;;;2.85;;
62258;SDS011;48241;48.824;10.102;2023-10-13T09:35:10;8.07;;;3.03;;
62258;SDS011;48241;48.824;10.102;2023-10-13T09:37:45;8.65;;;2.97;;
62258;SDS011;48241;48.824;10.102;2023-10-13T09:40:12;6.93;;;3.08;;
62258;SDS011;48241;48.824;10.102;2023-10-13T09:42:59;6.35;;;2.72;;
62258;SDS011;48241;48.824;10.102;2023-10-13T09:45:40;9.23;;;3.10;;
62258;SDS011;48241;48.824;10.102;2023-10-13T09:48:25;7.68;;;3.03;;
62258;SDS011;48241;48.824;10.102;2023-10-13T09:51:00;8.88;;;3.03;;
62258;SDS011;48241;48.824;10.102;2023-10-13T09:53:34;6.22;;;2.92;;
62258;SDS011;48241;48.824;10.102;2023-10-13T09:56:15;7.13;;;3.25;;
62258;SDS011;48241;48.824;10.102;2023-10-13T09:58:53;7.93;;;3.33;;
62258;SDS011;48241;48.824;10.102;2023-10-13T10:01:33;5.70;;;2.90;;
62258;SDS011;48241;48.824;10.102;2023-10-13T10:04:10;8.05;;;5.13;;
62258;SDS011;48241;48.824;10.102;2023-10-13T10:06:51;7.05;;;3.42;;
62258;SDS011;48241;48.824;10.102;2023-10-13T10:09:26;5.70;;;3.20;;
62258;SDS011;48241;48.824;10.102;2023-10-13T10:15:16;6.55;;;3.10;;
62258;SDS011;48241;48.824;10.102;2023-10-13T10:17:56;7.95;;;3.00;;
62258;SDS011;48241;48.824;10.102;2023-10-13T10:20:28;7.60;;;3.50;;
62258;SDS011;48241;48.824;10.102;2023-10-13T10:23:06;5.13;;;2.83;;
62258;SDS011;48241;48.824;10.102;2023-10-13T10:25:39;4.65;;;2.50;;
62258;SDS011;48241;48.824;10.102;2023-10-13T10:28:09;5.60;;;2.92;;
62258;SDS011;48241;48.824;10.102;2023-10-13T10:30:40;6.20;;;2.88;;
62258;SDS011;48241;48.824;10.102;2023-10-13T10:33:07;7.65;;;3.03;;
62258;SDS011;48241;48.824;10.102;2023-10-13T10:35:44;6.90;;;3.22;;
62258;SDS011;48241;48.824;10.102;2023-10-13T10:38:11;7.57;;;2.95;;
62258;SDS011;48241;48.824;10.102;2023-10-13T10:40:58;8.52;;;3.08;;
62258;SDS011;48241;48.824;10.102;2023-10-13T10:43:30;5.13;;;2.70;;
62258;SDS011;48241;48.824;10.102;2023-10-13T10:46:13;8.68;;;2.97;;
62258;SDS011;48241;48.824;10.102;2023-10-13T10:48:44;6.03;;;2.78;;
62258;SDS011;48241;48.824;10.102;2023-10-13T10:51:11;6.95;;;2.40;;
62258;SDS011;48241;48.824;10.102;2023-10-13T10:53:46;7.97;;;3.50;;
62258;SDS011;48241;48.824;10.102;2023-10-13T10:56:14;8.77;;;2.90;;
62258;SDS011;48241;48.824;10.102;2023-10-13T10:58:53;5.25;;;2.58;;
62258;SDS011;48241;48.824;10.102;2023-10-13T11:01:22;6.72;;;2.80;;
62258;SDS011;48241;48.824;10.102;2023-10-13T11:04:02;6.97;;;2.70;;
62258;SDS011;48241;48.824;10.102;2023-10-13T11:06:44;6.05;;;3.00;;
62258;SDS011;48241;48.824;10.102;2023-10-13T11:09:11;5.82;;;2.60;;
62258;SDS011;48241;48.824;10.102;2023-10-13T11:11:46;5.88;;;2.67;;
62258;SDS011;48241;48.824;10.102;2023-10-13T11:14:24;7.93;;;2.78;;
62258;SDS011;48241;48.824;10.102;2023-10-13T11:16:54;4.35;;;2.42;;
62258;SDS011;48241;48.824;10.102;2023-10-13T11:19:36;8.25;;;2.88;;
62258;SDS011;48241;48.824;10.102;2023-10-13T11:22:16;8.38;;;2.88;;
62258;SDS011;48241;48.824;10.102;2023-10-13T11:25:01;7.22;;;2.60;;
62258;SDS011;48241;48.824;10.102;2023-10-13T11:27:36;4.47;;;2.58;;
62258;SDS011;48241;48.824;10.102;2023-10-13T11:30:24;9.13;;;3.20;;
62258;SDS011;48241;48.824;10.102;2023-10-13T11:35:33;6.88;;;2.60;;
62258;SDS011;48241;48.824;10.102;2023-10-13T11:38:34;9.40;;;2.75;;
62258;SDS011;48241;48.824;10.102;2023-10-13T11:41:08;4.38;;;2.72;;
62258;SDS011;48241;48.824;10.102;2023-10-13T11:46:17;6.22;;;2.75;;
62258;SDS011;48241;48.824;10.102;2023-10-13T11:49:07;7.20;;;2.60;;
62258;SDS011;48241;48.824;10.102;2023-10-13T11:51:39;8.60;;;3.00;;
62258;SDS011;48241;48.824;10.102;2023-10-13T11:54:09;6.80;;;2.70;;
62258;SDS011;48241;48.824;10.102;2023-10-13T11:56:36;7.30;;;2.90;;
62258;SDS011;48241;48.824;10.102;2023-10-13T11:59:03;10.57;;;3.00;;
62258;SDS011;48241;48.824;10.102;2023-10-13T12:01:30;6.13;;;2.60;;
62258;SDS011;48241;48.824;10.102;2023-10-13T12:04:15;5.75;;;2.53;;
62258;SDS011;48241;48.824;10.102;2023-10-13T12:07:00;5.65;;;2.47;;
62258;SDS011;48241;48.824;10.102;2023-10-13T12:09:45;6.10;;;2.70;;
62258;SDS011;48241;48.824;10.102;2023-10-13T12:12:22;6.35;;;2.47;;
62258;SDS011;48241;48.824;10.102;2023-10-13T12:14:53;9.50;;;2.95;;
62258;SDS011;48241;48.824;10.102;2023-10-13T12:17:23;8.63;;;2.45;;
62258;SDS011;48241;48.824;10.102;2023-10-13T12:19:52;5.43;;;2.70;;
62258;SDS011;48241;48.824;10.102;2023-10-13T12:22:34;7.82;;;2.90;;
62258;SDS011;48241;48.824;10.102;2023-10-13T12:25:04;6.63;;;2.42;;
62258;SDS011;48241;48.824;10.102;2023-10-13T12:27:44;4.03;;;2.25;;
62258;SDS011;48241;48.824;10.102;2023-10-13T12:30:14;6.30;;;2.50;;
62258;SDS011;48241;48.824;10.102;2023-10-13T12:32:47;6.28;;;2.70;;
62258;SDS011;48241;48.824;10.102;2023-10-13T12:35:31;9.73;;;2.67;;
62258;SDS011;48241;48.824;10.102;2023-10-13T12:38:00;6.47;;;2.50;;
62258;SDS011;48241;48.824;10.102;2023-10-13T12:40:51;6.82;;;2.80;;
62258;SDS011;48241;48.824;10.102;2023-10-13T12:43:35;7.43;;;2.47;;
62258;SDS011;48241;48.824;10.102;2023-10-13T12:46:19;7.88;;;2.72;;
62258;SDS011;48241;48.824;10.102;2023-10-13T12:49:03;9.50;;;2.90;;
62258;SDS011;48241;48.824;10.102;2023-10-13T12:51:40;5.57;;;2.40;;
62258;SDS011;48241;48.824;10.102;2023-10-13T12:54:15;5.97;;;2.33;;
62258;SDS011;48241;48.824;10.102;2023-10-13T12:56:48;5.80;;;2.60;;
62258;SDS011;48241;48.824;10.102;2023-10-13T12:59:21;6.15;;;2.60;;
62258;SDS011;48241;48.824;10.102;2023-10-13T13:01:51;7.57;;;2.60;;
62258;SDS011;48241;48.824;10.102;2023-10-13T13:04:17;8.13;;;2.80;;
62258;SDS011;48241;48.824;10.102;2023-10-13T13:06:45;6.00;;;2.60;;
62258;SDS011;48241;48.824;10.102;2023-10-13T13:09:12;7.43;;;2.80;;
62258;SDS011;48241;48.824;10.102;2023-10-13T13:11:37;8.95;;;2.80;;
62258;SDS011;48241;48.824;10.102;2023-10-13T13:14:06;7.72;;;2.78;;
62258;SDS011;48241;48.824;10.102;2023-10-13T13:16:33;6.00;;;2.58;;
62258;SDS011;48241;48.824;10.102;2023-10-13T13:18:59;5.13;;;2.20;;
62258;SDS011;48241;48.824;10.102;2023-10-13T13:21:28;9.15;;;2.90;;
62258;SDS011;48241;48.824;10.102;2023-10-13T13:23:54;5.45;;;2.97;;
62258;SDS011;48241;48.824;10.102;2023-10-13T13:26:20;6.60;;;2.78;;
62258;SDS011;48241;48.824;10.102;2023-10-13T13:28:47;6.88;;;3.00;;
62258;SDS011;48241;48.824;10.102;2023-10-13T13:31:15;6.40;;;2.40;;
62258;SDS011;48241;48.824;10.102;2023-10-13T13:33:41;4.82;;;2.80;;
62258;SDS011;48241;48.824;10.102;2023-10-13T13:36:08;8.63;;;2.80;;
62258;SDS011;48241;48.824;10.102;2023-10-13T13:38:44;6.65;;;2.15;;
62258;SDS011;48241;48.824;10.102;2023-10-13T13:41:15;7.80;;;2.90;;
62258;SDS011;48241;48.824;10.102;2023-10-13T13:43:51;5.32;;;2.55;;
62258;SDS011;48241;48.824;10.102;2023-10-13T13:46:22;6.25;;;2.70;;
62258;SDS011;48241;48.824;10.102;2023-10-13T13:48:50;7.72;;;2.60;;
62258;SDS011;48241;48.824;10.102;2023-10-13T13:51:22;9.18;;;2.50;;
62258;SDS011;48241;48.824;10.102;2023-10-13T13:53:52;7.50;;;2.60;;
62258;SDS011;48241;48.824;10.102;2023-10-13T13:56:18;5.93;;;2.40;;
62258;SDS011;48241;48.824;10.102;2023-10-13T13:58:44;5.18;;;2.80;;
62258;SDS011;48241;48.824;10.102;2023-10-13T14:01:11;6.80;;;2.75;;
62258;SDS011;48241;48.824;10.102;2023-10-13T14:03:42;4.68;;;2.28;;
62258;SDS011;48241;48.824;10.102;2023-10-13T14:06:16;5.53;;;2.60;;
62258;SDS011;48241;48.824;10.102;2023-10-13T14:08:45;6.72;;;2.90;;
62258;SDS011;48241;48.824;10.102;2023-10-13T14:11:13;8.48;;;2.70;;
62258;SDS011;48241;48.824;10.102;2023-10-13T14:13:58;3.60;;;2.40;;
62258;SDS011;48241;48.824;10.102;2023-10-13T14:16:28;5.30;;;3.08;;
62258;SDS011;48241;48.824;10.102;2023-10-13T14:18:55;9.57;;;2.83;;
62258;SDS011;48241;48.824;10.102;2023-10-13T14:21:20;4.20;;;2.33;;
62258;SDS011;48241;48.824;10.102;2023-10-13T14:23:49;6.60;;;2.83;;
62258;SDS011;48241;48.824;10.102;2023-10-13T14:26:18;3.25;;;2.20;;
62258;SDS011;48241;48.824;10.102;2023-10-13T14:28:50;6.47;;;3.53;;
62258;SDS011;48241;48.824;10.102;2023-10-13T14:31:27;5.00;;;2.38;;
62258;SDS011;48241;48.824;10.102;2023-10-13T14:33:53;5.32;;;2.60;;
62258;SDS011;48241;48.824;10.102;2023-10-13T14:36:18;5.88;;;2.63;;
62258;SDS011;48241;48.824;10.102;2023-10-13T14:38:47;7.82;;;2.83;;
62258;SDS011;48241;48.824;10.102;2023-10-13T14:41:18;5.22;;;2.60;;
62258;SDS011;48241;48.824;10.102;2023-10-13T14:43:44;3.72;;;2.00;;
62258;SDS011;48241;48.824;10.102;2023-10-13T14:46:21;6.57;;;2.85;;
62258;SDS011;48241;48.824;10.102;2023-10-13T14:48:52;5.22;;;2.55;;
62258;SDS011;48241;48.824;10.102;2023-10-13T14:51:18;4.68;;;2.25;;
62258;SDS011;48241;48.824;10.102;2023-10-13T14:53:44;5.30;;;2.58;;
62258;SDS011;48241;48.824;10.102;2023-10-13T14:56:14;6.65;;;2.35;;
62258;SDS011;48241;48.824;10.102;2023-10-13T14:58:41;7.07;;;2.60;;
62258;SDS011;48241;48.824;10.102;2023-10-13T15:01:11;8.55;;;2.70;;
62258;SDS011;48241;48.824;10.102;2023-10-13T15:03:44;5.10;;;2.20;;
62258;SDS011;48241;48.824;10.102;2023-10-13T15:06:15;5.78;;;2.50;;
62258;SDS011;48241;48.824;10.102;2023-10-13T15:08:45;6.60;;;2.25;;
62258;SDS011;48241;48.824;10.102;2023-10-13T15:11:12;6.70;;;2.60;;
62258;SDS011;48241;48.824;10.102;2023-10-13T15:13:39;4.78;;;2.47;;
62258;SDS011;48241;48.824;10.102;2023-10-13T15:16:14;5.95;;;2.28;;
62258;SDS011;48241;48.824;10.102;2023-10-13T15:18:42;4.68;;;2.30;;
62258;SDS011;48241;48.824;10.102;2023-10-13T15:21:09;8.02;;;2.67;;
62258;SDS011;48241;48.824;10.102;2023-10-13T15:23:35;4.65;;;2.05;;
62258;SDS011;48241;48.824;10.102;2023-10-13T15:26:08;7.03;;;2.58;;
62258;SDS011;48241;48.824;10.102;2023-10-13T15:28:38;5.82;;;2.90;;
62258;SDS011;48241;48.824;10.102;2023-10-13T15:31:13;4.50;;;2.47;;
62258;SDS011;48241;48.824;10.102;2023-10-13T15:34:05;5.55;;;2.47;;
62258;SDS011;48241;48.824;10.102;2023-10-13T15:36:40;8.23;;;2.45;;
62258;SDS011;48241;48.824;10.102;2023-10-13T15:39:12;7.97;;;2.95;;
62258;SDS011;48241;48.824;10.102;2023-10-13T15:41:40;5.93;;;2.70;;
62258;SDS011;48241;48.824;10.102;2023-10-13T15:44:12;5.90;;;2.05;;
62258;SDS011;48241;48.824;10.102;2023-10-13T15:46:39;7.30;;;2.33;;